createdAt,value
2018-07-31T00:00:06.370Z,24.362488
2018-07-31T00:01:22.277Z,24.372559
2018-07-31T00:02:38.155Z,24.382629
2018-07-31T00:03:54.089Z,24.432983
2018-07-31T00:05:09.959Z,24.402771
2018-07-31T00:06:25.836Z,24.412842
2018-07-31T00:07:41.751Z,24.281921
2018-07-31T00:08:57.648Z,24.26178
2018-07-31T00:10:13.522Z,24.191284
2018-07-31T00:11:29.388Z,24.26178
2018-07-31T00:12:45.233Z,24.221497
2018-07-31T00:14:01.118Z,24.211426
2018-07-31T00:15:16.974Z,24.191284
2018-07-31T00:16:32.871Z,24.191284
2018-07-31T00:17:48.722Z,24.26178
2018-07-31T00:19:04.653Z,24.322205
2018-07-31T00:20:20.531Z,24.322205
2018-07-31T00:21:36.480Z,24.312134
2018-07-31T00:22:52.399Z,24.281921
2018-07-31T00:24:08.283Z,24.291992
2018-07-31T00:25:24.149Z,24.372559
2018-07-31T00:26:40.031Z,24.382629
2018-07-31T00:27:55.869Z,24.312134
2018-07-31T00:29:11.785Z,24.191284
2018-07-31T00:30:27.656Z,24.211426
2018-07-31T00:31:43.778Z,24.191284
2018-07-31T00:32:59.654Z,24.14093
2018-07-31T00:34:15.559Z,24.070435
2018-07-31T00:35:31.455Z,24.14093
2018-07-31T00:36:47.322Z,24.130859
2018-07-31T00:38:03.187Z,24.070435
2018-07-31T00:39:19.053Z,24.030151
2018-07-31T00:40:34.948Z,24.040222
2018-07-31T00:41:50.817Z,24.090576
2018-07-31T00:43:06.687Z,23.939514
2018-07-31T00:44:22.588Z,23.939514
2018-07-31T00:45:38.472Z,23.949585
2018-07-31T00:46:54.371Z,23.848877
2018-07-31T00:49:51.157Z,23.919373
2018-07-31T00:51:07.054Z,23.909302
2018-07-31T00:54:04.828Z,23.788452
2018-07-31T00:55:20.709Z,23.697815
2018-07-31T00:56:36.595Z,23.75824
2018-07-31T00:57:52.489Z,23.576965
2018-07-31T00:59:08.356Z,23.667603
2018-07-31T01:00:24.220Z,23.536682
2018-07-31T01:01:40.078Z,23.687744
2018-07-31T01:02:56.000Z,23.728027
2018-07-31T01:04:12.029Z,23.818665
2018-07-31T01:05:27.915Z,23.858948
2018-07-31T01:06:43.796Z,23.818665
2018-07-31T01:07:59.723Z,23.848877
2018-07-31T01:09:15.584Z,23.738098
2018-07-31T01:10:31.491Z,23.728027
2018-07-31T01:11:47.367Z,23.808594
2018-07-31T01:13:03.248Z,23.738098
2018-07-31T01:14:19.120Z,23.617249
2018-07-31T01:15:34.988Z,23.697815
2018-07-31T01:16:50.884Z,23.667603
2018-07-31T01:18:06.773Z,23.707886
2018-07-31T01:19:22.656Z,23.879089
2018-07-31T01:20:38.557Z,23.939514
2018-07-31T01:21:54.445Z,23.808594
2018-07-31T01:23:10.326Z,23.838806
2018-07-31T01:24:26.249Z,23.808594
2018-07-31T01:25:42.140Z,23.808594
2018-07-31T01:26:57.986Z,23.697815
2018-07-31T01:28:13.831Z,23.697815
2018-07-31T01:29:29.730Z,23.587036
2018-07-31T01:30:45.581Z,23.516541
2018-07-31T01:32:01.428Z,23.667603
2018-07-31T01:33:17.438Z,23.788452
2018-07-31T01:34:33.320Z,23.88916
2018-07-31T01:35:49.200Z,23.88916
2018-07-31T01:37:05.043Z,23.75824
2018-07-31T01:38:20.896Z,23.818665
2018-07-31T01:39:36.768Z,23.818665
2018-07-31T01:40:52.635Z,23.657532
2018-07-31T01:42:08.495Z,23.617249
2018-07-31T01:43:24.368Z,23.63739
2018-07-31T01:44:40.294Z,23.687744
2018-07-31T01:45:56.179Z,23.667603
2018-07-31T01:47:12.093Z,23.667603
2018-07-31T01:48:27.973Z,23.516541
2018-07-31T01:49:43.843Z,23.466187
2018-07-31T01:50:59.721Z,23.587036
2018-07-31T01:52:15.620Z,23.576965
2018-07-31T01:53:31.499Z,23.546753
2018-07-31T01:54:47.375Z,23.617249
2018-07-31T01:56:03.287Z,23.63739
2018-07-31T01:57:19.169Z,23.587036
2018-07-31T01:58:35.050Z,23.667603
2018-07-31T01:59:50.946Z,23.697815
2018-07-31T02:01:06.827Z,23.707886
2018-07-31T02:02:22.713Z,23.707886
2018-07-31T02:03:38.602Z,23.63739
2018-07-31T02:04:54.481Z,23.63739
2018-07-31T02:07:51.312Z,23.476257
2018-07-31T02:09:07.207Z,23.415833
2018-07-31T02:10:23.122Z,23.486328
2018-07-31T02:11:39.014Z,23.546753
2018-07-31T02:12:54.890Z,23.63739
2018-07-31T02:14:10.759Z,23.576965
2018-07-31T02:15:26.634Z,23.546753
2018-07-31T02:16:42.539Z,23.576965
2018-07-31T02:17:58.446Z,23.556824
2018-07-31T02:19:14.391Z,23.546753
2018-07-31T02:20:30.308Z,23.486328
2018-07-31T02:21:46.181Z,23.435974
2018-07-31T02:23:02.060Z,23.446045
2018-07-31T02:24:17.964Z,23.446045
2018-07-31T02:25:33.874Z,23.435974
2018-07-31T02:26:49.773Z,23.325195
2018-07-31T02:28:05.788Z,23.284912
2018-07-31T02:29:21.633Z,23.335266
2018-07-31T02:30:37.614Z,23.315125
2018-07-31T02:31:53.509Z,23.174133
2018-07-31T02:33:09.373Z,23.13385
2018-07-31T02:34:25.287Z,22.932434
2018-07-31T02:35:41.175Z,22.781372
2018-07-31T02:36:57.139Z,22.801514
2018-07-31T02:38:13.082Z,22.962646
2018-07-31T02:39:28.941Z,23.083496
2018-07-31T02:40:44.808Z,23.103638
2018-07-31T02:42:00.676Z,23.103638
2018-07-31T02:43:17.558Z,23.013
2018-07-31T02:44:33.464Z,23.013
2018-07-31T02:45:49.369Z,22.912292
2018-07-31T02:47:05.274Z,22.892151
2018-07-31T02:48:21.170Z,22.811584
2018-07-31T02:49:37.077Z,22.781372
2018-07-31T02:50:52.964Z,22.700806
2018-07-31T02:52:08.861Z,22.781372
2018-07-31T02:53:24.745Z,22.811584
2018-07-31T02:54:40.616Z,22.801514
2018-07-31T02:55:56.531Z,22.892151
2018-07-31T02:57:12.427Z,22.861938
2018-07-31T02:58:28.428Z,22.63031
2018-07-31T02:59:44.368Z,22.620239
2018-07-31T03:01:00.247Z,22.549744
2018-07-31T03:02:16.308Z,22.37854
2018-07-31T03:03:32.343Z,22.328186
2018-07-31T03:04:48.242Z,22.217407
2018-07-31T03:06:04.091Z,22.297974
2018-07-31T03:07:19.972Z,22.338257
2018-07-31T03:08:35.927Z,22.368469
2018-07-31T03:09:51.841Z,22.187195
2018-07-31T03:11:07.744Z,22.207336
2018-07-31T03:12:23.614Z,22.116699
2018-07-31T03:13:39.493Z,22.156982
2018-07-31T03:14:55.565Z,22.116699
2018-07-31T03:16:11.478Z,22.136841
2018-07-31T03:17:27.532Z,22.116699
2018-07-31T03:18:43.413Z,22.00592
2018-07-31T03:19:59.378Z,21.905212
2018-07-31T03:21:15.388Z,21.885071
2018-07-31T03:22:31.271Z,21.854858
2018-07-31T03:23:47.267Z,21.965637
2018-07-31T03:25:03.192Z,22.026062
2018-07-31T03:26:19.200Z,22.00592
2018-07-31T03:27:35.132Z,21.99585
2018-07-31T03:28:51.172Z,22.00592
2018-07-31T03:30:07.135Z,21.915283
2018-07-31T03:31:23.014Z,21.885071
2018-07-31T03:32:38.916Z,21.814575
2018-07-31T03:33:54.792Z,21.905212
2018-07-31T03:35:10.681Z,21.905212
2018-07-31T03:36:26.726Z,21.99585
2018-07-31T03:37:42.725Z,21.804504
2018-07-31T03:38:59.608Z,21.834717
2018-07-31T03:40:16.514Z,21.693726
2018-07-31T03:41:32.449Z,21.703796
2018-07-31T03:42:48.474Z,21.74408
2018-07-31T03:44:04.355Z,21.844788
2018-07-31T03:45:20.235Z,21.814575
2018-07-31T03:46:36.283Z,21.834717
2018-07-31T03:47:52.180Z,21.723938
2018-07-31T03:49:08.199Z,21.633301
2018-07-31T03:50:24.088Z,21.62323
2018-07-31T03:51:40.048Z,21.663513
2018-07-31T03:52:55.925Z,21.75415
2018-07-31T03:54:11.829Z,21.814575
2018-07-31T03:55:27.810Z,21.774292
2018-07-31T03:56:43.704Z,21.935425
2018-07-31T03:58:00.686Z,22.026062
2018-07-31T03:59:16.623Z,22.00592
2018-07-31T04:00:32.633Z,21.834717
2018-07-31T04:01:48.559Z,21.663513
2018-07-31T04:03:04.532Z,21.774292
2018-07-31T04:04:20.430Z,21.784363
2018-07-31T04:05:36.414Z,21.814575
2018-07-31T04:06:52.322Z,21.905212
2018-07-31T04:08:08.351Z,22.036133
2018-07-31T04:09:24.382Z,22.116699
2018-07-31T04:10:40.302Z,22.00592
2018-07-31T04:11:56.190Z,21.935425
2018-07-31T04:13:12.098Z,21.99585
2018-07-31T04:14:28.034Z,21.915283
2018-07-31T04:15:43.935Z,21.915283
2018-07-31T04:16:59.858Z,21.935425
2018-07-31T04:18:15.835Z,21.985779
2018-07-31T04:19:31.770Z,21.844788
2018-07-31T04:20:47.699Z,21.915283
2018-07-31T04:22:03.588Z,21.955566
2018-07-31T04:23:19.491Z,22.026062
2018-07-31T04:24:35.471Z,21.985779
2018-07-31T04:25:51.393Z,21.844788
2018-07-31T04:27:07.483Z,21.814575
2018-07-31T04:28:23.507Z,21.915283
2018-07-31T04:29:39.381Z,21.804504
2018-07-31T04:30:55.415Z,21.834717
2018-07-31T04:32:11.359Z,21.915283
2018-07-31T04:33:27.289Z,21.814575
2018-07-31T04:34:43.239Z,21.75415
2018-07-31T04:35:59.228Z,21.814575
2018-07-31T04:37:15.088Z,21.915283
2018-07-31T04:38:31.102Z,21.955566
2018-07-31T04:39:47.044Z,22.00592
2018-07-31T04:41:02.958Z,21.955566
2018-07-31T04:42:18.869Z,21.723938
2018-07-31T04:43:34.887Z,21.62323
2018-07-31T04:44:50.825Z,21.633301
2018-07-31T04:46:06.876Z,21.633301
2018-07-31T04:47:22.940Z,21.683655
2018-07-31T04:48:38.912Z,21.723938
2018-07-31T04:49:54.798Z,21.663513
2018-07-31T04:51:10.711Z,21.703796
2018-07-31T04:52:26.698Z,21.844788
2018-07-31T04:53:43.770Z,21.844788
2018-07-31T04:54:59.700Z,21.75415
2018-07-31T04:56:15.704Z,21.784363
2018-07-31T04:57:31.618Z,21.834717
2018-07-31T04:58:47.785Z,21.844788
2018-07-31T05:00:03.716Z,21.703796
2018-07-31T05:01:19.642Z,21.875
2018-07-31T05:02:35.645Z,21.804504
2018-07-31T05:03:51.758Z,21.844788
2018-07-31T05:05:07.795Z,21.935425
2018-07-31T05:06:23.871Z,21.99585
2018-07-31T05:07:39.807Z,22.056274
2018-07-31T05:08:55.815Z,22.036133
2018-07-31T05:10:11.750Z,21.885071
2018-07-31T05:11:27.800Z,21.814575
2018-07-31T05:12:43.807Z,21.875
2018-07-31T05:13:59.776Z,21.875
2018-07-31T05:15:15.755Z,21.905212
2018-07-31T05:16:31.674Z,21.965637
2018-07-31T05:17:47.653Z,22.026062
2018-07-31T05:19:03.632Z,21.905212
2018-07-31T05:20:19.559Z,22.076416
2018-07-31T05:21:35.536Z,22.207336
2018-07-31T05:22:51.547Z,22.187195
2018-07-31T05:24:07.474Z,22.338257
2018-07-31T05:25:23.458Z,22.368469
2018-07-31T05:26:39.414Z,22.297974
2018-07-31T05:29:36.873Z,22.277832
2018-07-31T05:30:52.996Z,22.297974
2018-07-31T05:32:08.924Z,22.358398
2018-07-31T05:33:24.848Z,22.438965
2018-07-31T05:34:40.788Z,22.408752
2018-07-31T05:35:56.695Z,22.50946
2018-07-31T05:37:12.762Z,22.519531
2018-07-31T05:38:28.672Z,22.519531
2018-07-31T05:39:44.583Z,22.620239
2018-07-31T05:41:00.547Z,22.590027
2018-07-31T05:42:16.450Z,22.620239
2018-07-31T05:43:32.452Z,22.670593
2018-07-31T05:44:48.358Z,22.741089
2018-07-31T05:46:04.291Z,22.700806
2018-07-31T05:47:20.313Z,22.771301
2018-07-31T05:48:36.248Z,22.801514
2018-07-31T05:49:52.176Z,22.912292
2018-07-31T05:51:08.099Z,22.962646
2018-07-31T05:52:24.015Z,22.962646
2018-07-31T05:53:39.936Z,22.932434
2018-07-31T05:54:55.813Z,22.962646
2018-07-31T05:56:11.826Z,23.043213
2018-07-31T05:57:27.784Z,23.043213
2018-07-31T05:58:43.682Z,23.043213
2018-07-31T05:59:59.702Z,23.113708
2018-07-31T06:01:15.637Z,23.174133
2018-07-31T06:02:31.613Z,23.184204
2018-07-31T06:03:47.548Z,23.174133
2018-07-31T06:05:03.450Z,23.264771
2018-07-31T06:06:19.392Z,23.294983
2018-07-31T06:07:35.250Z,23.365479
2018-07-31T06:08:51.168Z,23.446045
2018-07-31T06:10:07.107Z,23.50647
2018-07-31T06:11:23.157Z,23.546753
2018-07-31T06:12:39.172Z,23.587036
2018-07-31T06:13:55.104Z,23.627319
2018-07-31T06:15:11.091Z,23.667603
2018-07-31T06:16:26.983Z,23.687744
2018-07-31T06:17:42.893Z,23.657532
2018-07-31T06:18:58.822Z,23.728027
2018-07-31T06:20:14.761Z,23.788452
2018-07-31T06:21:30.865Z,23.858948
2018-07-31T06:22:46.801Z,23.939514
2018-07-31T06:24:02.735Z,23.949585
2018-07-31T06:25:18.717Z,23.939514
2018-07-31T06:26:34.738Z,23.949585
2018-07-31T06:27:50.762Z,23.999939
2018-07-31T06:29:06.694Z,23.999939
2018-07-31T06:30:22.591Z,23.989868
2018-07-31T06:31:38.578Z,23.949585
2018-07-31T06:32:54.520Z,24.01001
2018-07-31T06:34:10.550Z,24.070435
2018-07-31T06:35:26.457Z,23.959656
2018-07-31T06:36:42.368Z,23.999939
2018-07-31T06:37:58.305Z,23.909302
2018-07-31T06:39:14.188Z,23.838806
2018-07-31T06:40:30.182Z,23.818665
2018-07-31T06:41:46.089Z,23.848877
2018-07-31T06:43:02.031Z,23.707886
2018-07-31T06:44:17.995Z,23.788452
2018-07-31T06:45:33.928Z,23.848877
2018-07-31T06:46:49.895Z,23.818665
2018-07-31T06:48:05.804Z,23.657532
2018-07-31T06:49:21.822Z,23.667603
2018-07-31T06:50:37.800Z,23.657532
2018-07-31T06:51:53.748Z,23.728027
2018-07-31T06:53:09.808Z,23.75824
2018-07-31T06:54:25.738Z,23.858948
2018-07-31T06:55:41.703Z,23.838806
2018-07-31T06:56:57.622Z,23.838806
2018-07-31T06:58:13.562Z,23.919373
2018-07-31T06:59:29.556Z,23.879089
2018-07-31T07:00:45.483Z,23.959656
2018-07-31T07:02:01.643Z,24.01001
2018-07-31T07:03:17.647Z,24.060364
2018-07-31T07:04:33.547Z,24.100647
2018-07-31T07:05:49.526Z,24.110718
2018-07-31T07:07:05.620Z,24.130859
2018-07-31T07:08:21.573Z,24.191284
2018-07-31T07:09:37.522Z,24.130859
2018-07-31T07:10:53.432Z,24.110718
2018-07-31T07:13:49.919Z,24.26178
2018-07-31T07:15:05.925Z,24.281921
2018-07-31T07:16:21.851Z,24.342346
2018-07-31T07:17:37.934Z,24.342346
2018-07-31T07:18:53.885Z,24.211426
2018-07-31T07:20:09.950Z,24.26178
2018-07-31T07:21:25.902Z,24.372559
2018-07-31T07:22:41.892Z,24.382629
2018-07-31T07:23:57.824Z,24.432983
2018-07-31T07:25:13.724Z,24.473267
2018-07-31T07:26:29.759Z,24.432983
2018-07-31T07:27:45.731Z,24.382629
2018-07-31T07:29:01.647Z,24.503479
2018-07-31T07:30:17.652Z,24.563904
2018-07-31T07:31:33.532Z,24.654541
2018-07-31T07:32:49.550Z,24.594116
2018-07-31T07:34:05.648Z,24.624329
2018-07-31T07:35:21.607Z,24.634399
2018-07-31T07:36:37.628Z,24.594116
2018-07-31T07:37:53.546Z,24.473267
2018-07-31T07:39:09.423Z,24.533691
2018-07-31T07:40:25.327Z,24.533691
2018-07-31T07:41:41.297Z,24.634399
2018-07-31T07:42:57.435Z,24.745178
2018-07-31T07:44:13.367Z,24.745178
2018-07-31T07:45:29.521Z,24.815674
2018-07-31T07:46:45.434Z,24.815674
2018-07-31T07:48:04.133Z,24.785461
2018-07-31T07:49:20.121Z,24.76532
2018-07-31T07:50:36.133Z,24.835815
2018-07-31T07:51:52.061Z,24.916382
2018-07-31T07:53:07.970Z,24.966736
2018-07-31T07:54:24.048Z,25.027161
2018-07-31T07:55:39.902Z,25.027161
2018-07-31T07:56:55.882Z,24.956665
2018-07-31T07:58:11.927Z,25.027161
2018-07-31T07:59:27.848Z,25.067444
2018-07-31T08:00:43.804Z,24.966736
2018-07-31T08:01:59.748Z,24.966736
2018-07-31T08:03:15.673Z,25.027161
2018-07-31T08:04:31.739Z,24.996948
2018-07-31T08:05:47.686Z,24.966736
2018-07-31T08:07:03.665Z,24.986877
2018-07-31T08:08:19.642Z,24.996948
2018-07-31T08:09:35.589Z,25.107727
2018-07-31T08:10:51.573Z,25.037231
2018-07-31T08:12:07.553Z,24.996948
2018-07-31T08:13:23.541Z,25.027161
2018-07-31T08:14:39.487Z,25.037231
2018-07-31T08:15:55.489Z,25.107727
2018-07-31T08:17:12.090Z,25.218506
2018-07-31T08:18:28.086Z,25.258789
2018-07-31T08:19:44.436Z,25.299072
2018-07-31T08:22:41.508Z,25.158081
2018-07-31T08:23:57.618Z,25.208435
2018-07-31T08:26:54.844Z,25.238647
2018-07-31T08:29:51.434Z,25.258789
2018-07-31T08:31:07.473Z,25.299072
2018-07-31T08:32:23.383Z,25.188293
2018-07-31T08:33:39.432Z,25.329285
2018-07-31T08:34:55.447Z,25.540771
2018-07-31T08:36:11.924Z,25.369568
2018-07-31T08:37:28.235Z,25.289001
2018-07-31T08:38:44.607Z,25.39978
2018-07-31T08:40:00.969Z,25.369568
2018-07-31T08:41:16.937Z,25.369568
2018-07-31T08:42:32.903Z,25.52063
2018-07-31T08:43:48.804Z,25.611267
2018-07-31T08:45:04.859Z,25.591125
2018-07-31T08:46:21.339Z,25.631409
2018-07-31T08:47:37.708Z,25.591125
2018-07-31T08:50:34.889Z,25.631409
2018-07-31T08:51:50.825Z,25.460205
2018-07-31T08:53:06.877Z,25.429993
2018-07-31T08:54:22.952Z,25.39978
2018-07-31T08:55:38.911Z,25.429993
2018-07-31T08:56:55.084Z,25.39978
2018-07-31T08:58:10.959Z,25.550842
2018-07-31T08:59:27.021Z,25.540771
2018-07-31T09:00:43.020Z,25.742188
2018-07-31T09:01:58.944Z,25.883179
2018-07-31T09:03:14.889Z,25.7724
2018-07-31T09:04:30.867Z,25.812683
2018-07-31T09:05:46.846Z,25.762329
2018-07-31T09:07:02.784Z,25.742188
2018-07-31T09:08:18.766Z,25.89325
2018-07-31T09:11:16.019Z,25.782471
2018-07-31T09:12:32.121Z,25.762329
2018-07-31T09:13:48.401Z,25.852966
2018-07-31T09:15:05.047Z,25.983887
2018-07-31T09:16:21.281Z,26.084595
2018-07-31T09:17:37.726Z,26.225586
2018-07-31T09:18:53.853Z,26.265869
2018-07-31T09:20:09.973Z,26.306152
2018-07-31T09:21:26.262Z,26.185303
2018-07-31T09:24:22.941Z,25.953674
2018-07-31T09:25:38.908Z,26.014099
2018-07-31T09:26:55.256Z,26.074524
2018-07-31T09:28:11.936Z,26.15509
2018-07-31T09:29:28.242Z,26.215515
2018-07-31T09:30:44.760Z,26.185303
2018-07-31T09:32:00.938Z,26.175232
2018-07-31T09:33:17.005Z,26.185303
2018-07-31T09:34:33.091Z,26.225586
2018-07-31T09:35:49.010Z,26.326294
2018-07-31T09:37:05.110Z,26.366577
2018-07-31T09:38:21.037Z,26.366577
2018-07-31T09:39:37.010Z,26.286011
2018-07-31T09:40:53.126Z,26.235657
2018-07-31T09:42:09.075Z,26.326294
2018-07-31T09:43:25.106Z,26.265869
2018-07-31T09:44:41.040Z,26.14502
2018-07-31T09:45:57.212Z,26.134949
2018-07-31T09:47:13.751Z,26.175232
2018-07-31T09:48:29.721Z,26.225586
2018-07-31T09:49:45.659Z,26.225586
2018-07-31T09:51:01.746Z,26.215515
2018-07-31T09:53:58.687Z,26.386719
2018-07-31T09:55:14.637Z,26.507568
2018-07-31T09:56:30.662Z,26.366577
2018-07-31T09:57:46.769Z,26.356506
2018-07-31T09:59:02.710Z,26.366577
2018-07-31T10:00:18.735Z,26.326294
2018-07-31T10:01:34.650Z,26.40686
2018-07-31T10:02:50.702Z,26.517639
2018-07-31T10:04:06.765Z,26.557922
2018-07-31T10:05:22.740Z,26.628418
2018-07-31T10:06:38.797Z,26.65863
2018-07-31T10:07:54.747Z,26.729126
2018-07-31T10:09:10.681Z,26.77948
2018-07-31T10:10:26.792Z,26.77948
2018-07-31T10:11:42.740Z,26.789551
2018-07-31T10:12:58.707Z,26.739197
2018-07-31T10:14:14.684Z,26.739197
2018-07-31T10:15:30.611Z,26.759338
2018-07-31T10:16:46.643Z,26.829834
2018-07-31T10:18:03.162Z,26.860046
2018-07-31T10:19:19.857Z,26.819763
2018-07-31T10:22:16.750Z,26.9104
2018-07-31T10:23:32.793Z,26.920471
2018-07-31T10:24:48.733Z,26.829834
2018-07-31T10:26:04.727Z,26.849976
2018-07-31T10:27:20.732Z,26.849976
2018-07-31T10:28:36.800Z,26.920471
2018-07-31T10:29:52.741Z,26.880188
2018-07-31T10:31:08.691Z,26.890259
2018-07-31T10:32:24.642Z,26.960754
2018-07-31T10:33:40.690Z,27.001038
2018-07-31T10:34:56.664Z,27.03125
2018-07-31T10:36:12.715Z,27.051392
2018-07-31T10:37:28.679Z,27.011108
2018-07-31T10:38:44.582Z,26.930542
2018-07-31T10:40:00.617Z,26.960754
2018-07-31T10:41:16.656Z,27.041321
2018-07-31T10:42:32.658Z,27.101746
2018-07-31T10:43:48.683Z,27.111816
2018-07-31T10:45:04.643Z,27.16217
2018-07-31T10:46:20.596Z,27.1521
2018-07-31T10:47:36.657Z,27.1521
2018-07-31T10:48:52.610Z,27.182312
2018-07-31T10:50:08.636Z,27.222595
2018-07-31T10:51:24.613Z,27.262878
2018-07-31T10:52:40.537Z,27.262878
2018-07-31T10:53:56.561Z,27.343445
2018-07-31T10:55:12.491Z,27.343445
2018-07-31T10:56:28.457Z,27.343445
2018-07-31T10:57:44.552Z,27.353516
2018-07-31T10:59:00.495Z,27.333374
2018-07-31T11:00:16.716Z,27.262878
2018-07-31T11:01:32.602Z,27.343445
2018-07-31T11:02:49.577Z,27.41394
2018-07-31T11:04:05.759Z,27.474365
2018-07-31T11:05:21.963Z,27.504578
2018-07-31T11:06:37.942Z,27.53479
2018-07-31T11:07:53.864Z,27.595215
2018-07-31T11:09:09.829Z,27.635498
2018-07-31T11:10:25.922Z,27.625427
2018-07-31T11:11:41.760Z,27.705994
2018-07-31T11:12:57.794Z,27.705994
2018-07-31T11:14:13.690Z,27.716064
2018-07-31T11:15:29.809Z,27.756348
2018-07-31T11:16:45.775Z,27.746277
2018-07-31T11:18:01.710Z,27.726135
2018-07-31T11:19:17.661Z,27.726135
2018-07-31T11:20:33.610Z,27.705994
2018-07-31T11:21:49.687Z,27.746277
2018-07-31T11:24:46.514Z,27.826843
2018-07-31T11:26:01.560Z,27.846985
2018-07-31T11:27:17.554Z,27.816772
2018-07-31T11:28:33.488Z,27.846985
2018-07-31T11:29:49.436Z,27.897339
2018-07-31T11:31:05.448Z,27.937622
2018-07-31T11:32:21.453Z,27.937622
2018-07-31T11:33:37.470Z,27.937622
2018-07-31T11:34:53.455Z,27.977905
2018-07-31T11:36:09.563Z,27.977905
2018-07-31T11:37:25.538Z,27.977905
2018-07-31T11:38:41.585Z,28.008118
2018-07-31T11:39:57.598Z,28.028259
2018-07-31T11:41:13.563Z,28.008118
2018-07-31T11:42:29.494Z,28.088684
2018-07-31T11:43:45.435Z,28.128967
2018-07-31T11:45:01.586Z,28.128967
2018-07-31T11:46:17.562Z,28.118896
2018-07-31T11:47:33.510Z,28.03833
2018-07-31T11:48:49.546Z,28.088684
2018-07-31T11:50:05.661Z,28.118896
2018-07-31T11:51:21.449Z,28.189392
2018-07-31T11:52:37.447Z,28.189392
2018-07-31T11:53:53.348Z,28.199463
2018-07-31T11:55:09.334Z,28.229675
2018-07-31T11:56:25.422Z,28.249817
2018-07-31T11:57:41.407Z,28.310242
2018-07-31T11:58:57.376Z,28.300171
2018-07-31T12:00:13.386Z,28.300171
2018-07-31T12:01:29.390Z,28.350525
2018-07-31T12:02:45.444Z,28.340454
2018-07-31T12:04:01.369Z,28.431091
2018-07-31T12:05:17.343Z,28.431091
2018-07-31T12:06:33.251Z,28.431091
2018-07-31T12:07:49.296Z,28.431091
2018-07-31T12:09:05.271Z,28.471375
2018-07-31T12:10:21.238Z,28.471375
2018-07-31T12:11:37.245Z,28.491516
2018-07-31T12:12:53.169Z,28.41095
2018-07-31T12:14:09.107Z,28.491516
2018-07-31T12:15:25.030Z,28.471375
2018-07-31T12:16:41.065Z,28.491516
2018-07-31T12:17:57.035Z,28.471375
2018-07-31T12:19:13.151Z,28.471375
2018-07-31T12:20:29.990Z,28.602295
2018-07-31T12:21:46.679Z,28.652649
2018-07-31T12:23:03.136Z,28.642578
2018-07-31T12:29:21.662Z,28.723145
2018-07-31T12:30:38.155Z,28.773499
2018-07-31T12:31:54.395Z,28.703003
2018-07-31T12:33:10.734Z,28.682861
2018-07-31T12:34:27.612Z,28.823853
2018-07-31T12:35:43.938Z,28.843994
2018-07-31T12:36:59.942Z,28.833923
2018-07-31T12:39:56.433Z,28.833923
2018-07-31T12:41:12.548Z,28.924561
2018-07-31T12:42:28.496Z,28.944702
2018-07-31T12:43:44.427Z,28.944702
2018-07-31T12:45:00.485Z,28.964844
2018-07-31T12:46:16.451Z,28.934631
2018-07-31T12:47:32.541Z,28.944702
2018-07-31T12:48:48.586Z,28.974915
2018-07-31T12:50:04.744Z,28.974915
2018-07-31T12:51:20.768Z,29.055481
2018-07-31T12:52:36.731Z,29.085693
2018-07-31T12:53:52.689Z,29.025269
2018-07-31T12:55:08.738Z,29.04541
2018-07-31T12:56:24.678Z,29.04541
2018-07-31T12:57:40.639Z,29.04541
2018-07-31T12:58:56.732Z,29.065552
2018-07-31T13:00:12.665Z,29.125977
2018-07-31T13:01:28.712Z,29.125977
2018-07-31T13:02:44.802Z,29.246826
2018-07-31T13:04:00.733Z,29.307251
2018-07-31T13:05:16.818Z,29.29718
2018-07-31T13:08:13.442Z,29.266968
2018-07-31T13:09:29.481Z,29.206543
2018-07-31T13:10:45.412Z,29.156189
2018-07-31T13:12:01.373Z,29.317322
2018-07-31T13:13:17.384Z,29.317322
2018-07-31T13:14:33.295Z,29.29718
2018-07-31T13:15:49.399Z,29.337463
2018-07-31T13:17:05.472Z,29.317322
2018-07-31T13:18:21.421Z,29.307251
2018-07-31T13:19:37.352Z,29.337463
2018-07-31T13:20:53.282Z,29.337463
2018-07-31T13:22:09.191Z,29.337463
2018-07-31T13:23:25.282Z,29.317322
2018-07-31T13:26:22.522Z,29.458313
2018-07-31T13:29:19.403Z,29.569092
2018-07-31T13:30:35.472Z,29.589233
2018-07-31T13:31:51.361Z,29.488525
2018-07-31T13:33:07.458Z,29.54895
2018-07-31T13:34:23.402Z,29.528809
2018-07-31T13:35:39.371Z,29.54895
2018-07-31T13:36:55.342Z,29.528809
2018-07-31T13:38:11.228Z,29.579163
2018-07-31T13:39:27.208Z,29.689941
2018-07-31T13:40:43.228Z,29.679871
2018-07-31T13:41:59.190Z,29.6698
2018-07-31T13:43:15.268Z,29.639587
2018-07-31T13:44:31.245Z,29.679871
2018-07-31T13:45:47.220Z,29.740295
2018-07-31T13:47:03.274Z,29.730225
2018-07-31T13:48:19.256Z,29.760437
2018-07-31T13:49:35.514Z,29.679871
2018-07-31T13:50:51.450Z,29.679871
2018-07-31T13:52:07.403Z,29.730225
2018-07-31T13:53:23.543Z,29.710083
2018-07-31T13:54:39.512Z,29.6698
2018-07-31T13:55:55.413Z,29.760437
2018-07-31T13:57:11.339Z,29.941711
2018-07-31T13:58:27.298Z,29.810791
2018-07-31T13:59:43.453Z,29.871216
2018-07-31T14:00:59.439Z,29.830933
2018-07-31T14:02:15.322Z,29.810791
2018-07-31T14:03:31.301Z,29.891357
2018-07-31T14:04:47.259Z,29.901428
2018-07-31T14:06:03.182Z,29.941711
2018-07-31T14:07:19.334Z,29.92157
2018-07-31T14:08:35.301Z,29.961853
2018-07-31T14:09:51.316Z,29.92157
2018-07-31T14:11:07.292Z,29.981995
2018-07-31T14:12:23.270Z,29.941711
2018-07-31T14:13:39.198Z,29.961853
2018-07-31T14:14:55.119Z,30.062561
2018-07-31T14:16:11.085Z,30.17334
2018-07-31T14:17:27.164Z,30.143127
2018-07-31T14:18:43.123Z,30.133057
2018-07-31T14:19:59.094Z,30.062561
2018-07-31T14:21:15.171Z,30.05249
2018-07-31T14:22:31.150Z,30.112915
2018-07-31T14:23:47.130Z,30.163269
2018-07-31T14:25:03.068Z,30.17334
2018-07-31T14:26:19.008Z,30.143127
2018-07-31T14:27:34.965Z,30.133057
2018-07-31T14:28:51.015Z,30.112915
2018-07-31T14:30:07.045Z,30.163269
2018-07-31T14:31:24.030Z,30.143127
2018-07-31T14:32:40.037Z,30.213623
2018-07-31T14:33:55.995Z,30.183411
2018-07-31T14:35:12.039Z,30.233765
2018-07-31T14:36:28.048Z,30.334473
2018-07-31T14:37:43.979Z,30.324402
2018-07-31T14:39:00.008Z,30.233765
2018-07-31T14:40:15.997Z,30.233765
2018-07-31T14:41:32.039Z,30.213623
2018-07-31T14:42:48.201Z,30.112915
2018-07-31T14:44:04.140Z,30.163269
2018-07-31T14:45:20.069Z,30.213623
2018-07-31T14:46:36.033Z,30.17334
2018-07-31T14:47:52.016Z,30.17334
2018-07-31T14:49:08.061Z,30.233765
2018-07-31T14:50:24.064Z,30.314331
2018-07-31T14:51:40.154Z,30.334473
2018-07-31T14:52:56.289Z,30.364685
2018-07-31T14:54:12.447Z,30.455322
2018-07-31T14:55:28.507Z,30.364685
2018-07-31T14:56:45.454Z,30.324402
2018-07-31T14:58:01.687Z,30.364685
2018-07-31T14:59:17.714Z,30.274048
2018-07-31T15:00:33.722Z,30.263977
2018-07-31T15:01:49.893Z,30.294189
2018-07-31T15:03:05.890Z,30.263977
2018-07-31T15:04:21.816Z,30.274048
2018-07-31T15:05:38.512Z,30.263977